Jonesville, Louisiana
Current Conditions -  °F | °C
As of 1:15 PM on Friday 21 Nov 2014 (Local Time) from KHEZ Reporting Station
Overcast Overcast  
Wind Chill: 68°   Ceiling: 9500
Heat Index: 68°   Visibility: 10mi
Dew Point: 46°   Wind: 15mph
Humidity: 46%   Direction: 140°SE
Pressure: 30.24"   Gusts: 22mph
Location:  31.63°N, 91.82°W
Report Text: KHEZ 211915Z AUTO 14013G19KT 10SM OVC095 20/08 A3024 RMK AO1
Loading
Personal Weather Stations






























Interactive Weather Map New forecast layout! Learn more

10-Day Weather Forecast

Advertisements
Track Severe Weather on mobile